Bungo Princess — 3FXV8 — position and weather

sailwx.info

Track history (hours):
 
Tides and Currents Weather Stations Pressure Air Temp Water Temp Dewpoint Dewpoint Depression Visibility Wind Speed Wind Dir Waves Ship Positions

Bungo Princess

Last reported at 2015-Aug-22 16:31 UTC. Time now 2015-Aug-30 13:55 UTC.
Position N 31°01' E 122°21'.

Length 103 m; draft 4.9 m.

Type: Cargo ship. MMSI: 355091000.

Date/timePositionNaut miles runAvg speedWind from/ knotsBaromVisibWave heightAir tempDewpointWater temp
2015-Aug-22 16:31N 31°01' E 122°21'1010.1
2015-Aug-22 15:33N 31°02' E 122°10'10 9.8
2015-Aug-22 14:34N 31°06' E 121°59'1514.6
2015-Aug-22 13:33N 31°15' E 121°46'1312.6
2015-Aug-22 12:33N 31°23' E 121°35'10 9.9
2015-Aug-22 11:34N 31°29' E 121°26'1010.2
2015-Aug-22 10:33N 31°36' E 121°17'1313.0
2015-Aug-22 09:33N 31°45' E 121°05'1310.8
2015-Aug-22 08:20N 31°53' E 120°53'1412.1
2015-Aug-22 07:10N 31°60' E 120°39'13 8.0
2015-Aug-22 05:33N 31°58' E 120°24'0 0.0
2015-Aug-22 04:31N 31°58' E 120°24'0 0.0
2015-Aug-22 00:21N 31°58' E 120°24'0 0.0
2015-Aug-21 23:21N 31°58' E 120°24'0 0.0
2015-Aug-21 22:27N 31°58' E 120°24'0 0.0
2015-Aug-21 21:24N 31°58' E 120°24'0 0.0
2015-Aug-21 20:27N 31°58' E 120°24'0 0.0
2015-Aug-21 19:18N 31°58' E 120°24'0 0.0
2015-Aug-21 18:30N 31°58' E 120°24'0 0.0
2015-Aug-21 17:21N 31°58' E 120°24'0 0.0
2015-Aug-21 16:33N 31°58' E 120°24'0 0.0
2015-Aug-21 15:33N 31°58' E 120°24'0 0.0
2015-Aug-21 04:30N 31°58' E 120°24'2 2.3
2015-Aug-21 03:33N 31°58' E 120°26'6 5.6
2015-Aug-21 02:33N 32°01' E 120°32'20 9.8
2015-Aug-21 00:33N 31°54' E 120°53'1010.5
2015-Aug-20 23:33N 31°47' E 121°01'1212.3
2015-Aug-20 22:33N 31°39' E 121°13'2 1.7
2015-Aug-20 21:32N 31°39' E 121°15'0 0.0
2015-Aug-20 20:32N 31°39' E 121°15'0 0.0
2015-Aug-20 19:32N 31°39' E 121°15'0 0.0
2015-Aug-20 18:32N 31°39' E 121°15'0 0.1
2015-Aug-20 17:32N 31°39' E 121°15'0 0.0
2015-Aug-20 16:29N 31°39' E 121°15'0 0.0
2015-Aug-20 15:32N 31°39' E 121°15'0 0.0
2015-Aug-20 14:32N 31°39' E 121°15'0 0.0
2015-Aug-20 13:32N 31°39' E 121°15'4 4.3
2015-Aug-20 12:33N 31°35' E 121°18'1111.2
2015-Aug-20 11:33N 31°28' E 121°28'5 5.3
2015-Aug-20 10:33N 31°24' E 121°32'3 3.3
2015-Aug-20 09:32N 31°21' E 121°31'0 0.0
2015-Aug-20 08:24N 31°21' E 121°31'0 0.0
2015-Aug-20 07:33N 31°21' E 121°31'0 0.0
2015-Aug-20 06:18N 31°21' E 121°31'0 0.0
2015-Aug-20 05:30N 31°21' E 121°31'0 0.0
2015-Aug-20 04:30N 31°21' E 121°31'0 0.0
2015-Aug-20 03:30N 31°21' E 121°31'0 0.0
2015-Aug-20 02:30N 31°21' E 121°31'0 0.0
2015-Aug-20 01:09N 31°21' E 121°31'0 0.0
2015-Aug-20 00:18N 31°21' E 121°31'0 0.0
2015-Aug-19 23:30N 31°21' E 121°31'0 0.0
2015-Aug-19 22:27N 31°21' E 121°31'0 0.0
2015-Aug-19 21:24N 31°21' E 121°31'2 2.6
2015-Aug-19 20:33N 31°23' E 121°30'6 5.9
2015-Aug-19 19:34N 31°22' E 121°37'1010.0
2015-Aug-19 18:33N 31°16' E 121°46'1312.6
2015-Aug-19 17:34N 31°07' E 121°57'1412.7
2015-Aug-19 16:26N 31°03' E 122°13'6 7.2
2015-Aug-19 15:33N 31°02' E 122°20'1212.4
2015-Aug-19 14:34N 30°60' E 122°34'  
Track history (hours):
 
Tides and Currents Weather Stations Pressure Air Temp Water Temp Dewpoint Dewpoint Depression Visibility Wind Speed Wind Dir Waves Ship Positions

Bungo Princess

Last reported at 2015-Aug-22 16:31 UTC. Time now 2015-Aug-30 13:55 UTC.
Position N 31°01' E 122°21'.

Length 103 m; draft 4.9 m.

Type: Cargo ship. MMSI: 355091000.

Date/timePositionNaut miles runAvg speedWind from/ knotsBaromVisibWave heightAir tempDewpointWater temp
2015-Aug-22 16:31N 31°01' E 122°21'1010.1
2015-Aug-22 15:33N 31°02' E 122°10'10 9.8
2015-Aug-22 14:34N 31°06' E 121°59'1514.6
2015-Aug-22 13:33N 31°15' E 121°46'1312.6
2015-Aug-22 12:33N 31°23' E 121°35'10 9.9
2015-Aug-22 11:34N 31°29' E 121°26'1010.2
2015-Aug-22 10:33N 31°36' E 121°17'1313.0
2015-Aug-22 09:33N 31°45' E 121°05'1310.8
2015-Aug-22 08:20N 31°53' E 120°53'1412.1
2015-Aug-22 07:10N 31°60' E 120°39'13 8.0
2015-Aug-22 05:33N 31°58' E 120°24'0 0.0
2015-Aug-22 04:31N 31°58' E 120°24'0 0.0
2015-Aug-22 00:21N 31°58' E 120°24'0 0.0
2015-Aug-21 23:21N 31°58' E 120°24'0 0.0
2015-Aug-21 22:27N 31°58' E 120°24'0 0.0
2015-Aug-21 21:24N 31°58' E 120°24'0 0.0
2015-Aug-21 20:27N 31°58' E 120°24'0 0.0
2015-Aug-21 19:18N 31°58' E 120°24'0 0.0
2015-Aug-21 18:30N 31°58' E 120°24'0 0.0
2015-Aug-21 17:21N 31°58' E 120°24'0 0.0
2015-Aug-21 16:33N 31°58' E 120°24'0 0.0
2015-Aug-21 15:33N 31°58' E 120°24'0 0.0
2015-Aug-21 04:30N 31°58' E 120°24'2 2.3
2015-Aug-21 03:33N 31°58' E 120°26'6 5.6
2015-Aug-21 02:33N 32°01' E 120°32'20 9.8
2015-Aug-21 00:33N 31°54' E 120°53'1010.5
2015-Aug-20 23:33N 31°47' E 121°01'1212.3
2015-Aug-20 22:33N 31°39' E 121°13'2 1.7
2015-Aug-20 21:32N 31°39' E 121°15'0 0.0
2015-Aug-20 20:32N 31°39' E 121°15'0 0.0
2015-Aug-20 19:32N 31°39' E 121°15'0 0.0
2015-Aug-20 18:32N 31°39' E 121°15'0 0.1
2015-Aug-20 17:32N 31°39' E 121°15'0 0.0
2015-Aug-20 16:29N 31°39' E 121°15'0 0.0
2015-Aug-20 15:32N 31°39' E 121°15'0 0.0
2015-Aug-20 14:32N 31°39' E 121°15'0 0.0
2015-Aug-20 13:32N 31°39' E 121°15'4 4.3
2015-Aug-20 12:33N 31°35' E 121°18'1111.2
2015-Aug-20 11:33N 31°28' E 121°28'5 5.3
2015-Aug-20 10:33N 31°24' E 121°32'3 3.3
2015-Aug-20 09:32N 31°21' E 121°31'0 0.0
2015-Aug-20 08:24N 31°21' E 121°31'0 0.0
2015-Aug-20 07:33N 31°21' E 121°31'0 0.0
2015-Aug-20 06:18N 31°21' E 121°31'0 0.0
2015-Aug-20 05:30N 31°21' E 121°31'0 0.0
2015-Aug-20 04:30N 31°21' E 121°31'0 0.0
2015-Aug-20 03:30N 31°21' E 121°31'0 0.0
2015-Aug-20 02:30N 31°21' E 121°31'0 0.0
2015-Aug-20 01:09N 31°21' E 121°31'0 0.0
2015-Aug-20 00:18N 31°21' E 121°31'0 0.0
2015-Aug-19 23:30N 31°21' E 121°31'0 0.0
2015-Aug-19 22:27N 31°21' E 121°31'0 0.0
2015-Aug-19 21:24N 31°21' E 121°31'2 2.6
2015-Aug-19 20:33N 31°23' E 121°30'6 5.9
2015-Aug-19 19:34N 31°22' E 121°37'1010.0
2015-Aug-19 18:33N 31°16' E 121°46'1312.6
2015-Aug-19 17:34N 31°07' E 121°57'1412.7
2015-Aug-19 16:26N 31°03' E 122°13'6 7.2
2015-Aug-19 15:33N 31°02' E 122°20'1212.4
2015-Aug-19 14:34N 30°60' E 122°34'  

Dump ship's entire track history